Time;durP1;ratioP1;P1;durP2;ratioP2;P2;SDS_P1;SDS_P2;PMS_P1;PMS_P2;Temp;Humidity;BMP_temperature;BMP_pressure;BME280_temperature;BME280_humidity;BME280_pressure;Samples;Min_cycle;Max_cycle;Signal;HPM_P1;HPM_P2
2021/03/22 00:00:45;;;;;;;36.15;22.80;;;77.00;2227.20;;;;;;5051342;28;20092;-76
2021/03/22 00:03:12;;;;;;;38.05;24.10;;;77.00;2227.20;;;;;;5052728;28;20025;-76
2021/03/22 00:05:38;;;;;;;28.83;18.38;;;76.80;2227.20;;;;;;5047891;28;20032;-75
2021/03/22 00:08:05;;;;;;;31.67;21.17;;;76.90;2227.20;;;;;;5052399;28;20057;-76
2021/03/22 00:10:32;;;;;;;32.22;19.90;;;76.80;2227.20;;;;;;5056858;28;20030;-74
2021/03/22 00:12:59;;;;;;;29.67;20.30;;;52.10;2227.20;;;;;;5054478;28;20581;-77
2021/03/22 00:15:28;;;;;;;28.50;18.95;;;52.10;2227.20;;;;;;5046149;28;20047;-75
2021/03/22 00:17:54;;;;;;;24.45;16.33;;;51.90;2227.20;;;;;;5056812;28;20036;-74
2021/03/22 00:20:20;;;;;;;25.13;17.20;;;51.80;2227.20;;;;;;5058476;28;20021;-76
2021/03/22 00:22:46;;;;;;;23.90;17.10;;;51.80;2227.20;;;;;;5047821;28;20054;-74
2021/03/22 00:25:12;;;;;;;27.70;18.02;;;51.70;2227.20;;;;;;5058465;28;20390;-74
2021/03/22 00:27:38;;;;;;;25.88;17.10;;;51.60;2227.20;;;;;;5050391;28;20021;-76
2021/03/22 00:30:07;;;;;;;28.10;18.17;;;51.50;2227.20;;;;;;5052671;28;20056;-76
2021/03/22 00:32:33;;;;;;;25.15;17.60;;;51.40;2227.20;;;;;;5045818;28;20084;-74
2021/03/22 00:34:59;;;;;;;22.65;16.40;;;51.40;2227.20;;;;;;5045334;28;20037;-73
2021/03/22 00:37:25;;;;;;;27.25;18.08;;;51.30;2227.20;;;;;;5057671;28;20029;-75
2021/03/22 00:39:51;;;;;;;24.73;16.98;;;51.20;2227.20;;;;;;5057128;28;20486;-77
2021/03/22 00:42:16;;;;;;;25.08;17.90;;;26.50;2201.60;;;;;;5055622;28;20021;-74
2021/03/22 00:44:45;;;;;;;25.38;16.35;;;26.50;2201.60;;;;;;5041346;28;20052;-75
2021/03/22 00:47:11;;;;;;;27.13;18.25;;;26.40;2201.60;;;;;;5051757;28;20375;-75
2021/03/22 00:49:36;;;;;;;22.70;16.45;;;26.30;2201.60;;;;;;5052138;28;20478;-74
2021/03/22 00:52:02;;;;;;;24.35;16.20;;;26.30;2201.60;;;;;;5055413;28;20029;-76
2021/03/22 00:54:28;;;;;;;22.83;16.20;;;26.30;2201.60;;;;;;5054904;28;20048;-73
2021/03/22 00:56:54;;;;;;;24.58;16.45;;;26.20;2201.60;;;;;;5056524;28;20029;-74
2021/03/22 00:59:20;;;;;;;23.80;15.27;;;26.20;2201.60;;;;;;5040165;28;20393;-74
2021/03/22 01:01:46;;;;;;;25.13;15.32;;;26.10;2201.60;;;;;;5053347;28;20443;-73
2021/03/22 01:04:12;;;;;;;24.25;15.50;;;26.10;2201.60;;;;;;5056337;28;20044;-74
2021/03/22 01:06:38;;;;;;;24.60;16.58;;;26.00;2201.60;;;;;;5056030;28;20115;-73
2021/03/22 01:09:06;;;;;;;24.45;16.40;;;26.00;2201.60;;;;;;5057104;28;20049;-73
2021/03/22 01:11:32;;;;;;;24.48;16.80;;;26.00;2201.60;;;;;;5054914;28;20047;-74
2021/03/22 01:13:59;;;;;;;25.15;16.38;;;26.00;2201.60;;;;;;5057359;28;20024;-75
2021/03/22 01:16:33;;;;;;;23.55;15.30;;;25.90;2201.60;;;;;;5052172;28;20061;-76
2021/03/22 01:19:01;;;;;;;24.05;15.25;;;26.00;2201.60;;;;;;5055084;28;20021;-74
2021/03/22 01:21:41;;;;;;;24.88;15.85;;;25.80;2201.60;;;;;;5053232;28;20036;-76
2021/03/22 01:24:09;;;;;;;22.10;15.20;;;25.80;2201.60;;;;;;5038531;28;20029;-76
2021/03/22 01:26:36;;;;;;;26.20;17.25;;;25.80;2201.60;;;;;;5055433;28;20025;-75
2021/03/22 01:29:13;;;;;;;23.60;17.10;;;25.70;2201.60;;;;;;5056739;28;20104;-76
2021/03/22 01:31:38;;;;;;;25.25;17.52;;;25.70;2201.60;;;;;;5044296;28;20025;-73
2021/03/22 01:34:05;;;;;;;24.90;17.60;;;25.60;2201.60;;;;;;5058960;28;20028;-76
2021/03/22 01:36:33;;;;;;;28.33;17.98;;;25.60;2201.60;;;;;;5052889;28;20056;-73
2021/03/22 01:39:12;;;;;;;30.20;19.33;;;0.90;2201.60;;;;;;5041725;28;20098;-75
2021/03/22 01:42:03;;;;;;;32.58;18.98;;;0.90;2201.60;;;;;;5052149;28;20033;-73
2021/03/22 01:44:33;;;;;;;28.67;17.55;;;0.90;2201.60;;;;;;5055913;28;20032;-77
2021/03/22 01:47:08;;;;;;;24.95;16.75;;;0.80;2201.60;;;;;;5053429;28;20032;-76
2021/03/22 01:49:46;;;;;;;24.73;16.77;;;0.80;2201.60;;;;;;5037470;28;20029;-76
2021/03/22 01:52:13;;;;;;;27.00;17.80;;;0.70;2201.60;;;;;;5027888;28;20033;-75
2021/03/22 01:54:41;;;;;;;23.60;16.75;;;0.70;2201.60;;;;;;5057105;28;20028;-75
2021/03/22 01:57:32;;;;;;;23.85;17.15;;;0.70;2201.60;;;;;;5056362;28;20166;-73
2021/03/22 02:00:07;;;;;;;23.48;17.23;;;0.70;2201.60;;;;;;5050311;28;20039;-76
2021/03/22 02:02:34;;;;;;;24.70;17.38;;;0.70;2201.60;;;;;;5053649;28;20021;-75
2021/03/22 02:05:00;;;;;;;27.23;17.17;;;0.60;2201.60;;;;;;5058137;28;20052;-78
2021/03/22 02:07:28;;;;;;;27.35;17.63;;;0.70;2201.60;;;;;;5056178;28;20509;-75
2021/03/22 02:09:54;;;;;;;28.42;18.35;;;;;;;;;;5056537;28;20021;-74
2021/03/22 02:12:20;;;;;;;25.27;17.10;;;;;;;;;;5042707;28;20083;-76
2021/03/22 02:14:48;;;;;;;28.52;18.52;;;;;;;;;;5040023;28;20033;-78
2021/03/22 02:17:20;;;;;;;25.40;17.85;;;;;;;;;;5055719;28;20409;-76
2021/03/22 02:19:49;;;;;;;22.42;16.85;;;;;;;;;;5055750;28;20075;-74
2021/03/22 02:22:19;;;;;;;28.58;18.60;;;;;;;;;;5053606;28;20040;-76
2021/03/22 02:24:45;;;;;;;27.30;17.45;;;;;;;;;;5042855;28;20044;-74
2021/03/22 02:27:29;;;;;;;26.02;17.70;;;;;;;;;;5057971;28;20172;-74
2021/03/22 02:30:01;;;;;;;27.50;18.98;;;;;;;;;;5045102;28;20036;-75
2021/03/22 02:32:42;;;;;;;27.13;18.90;;;;;;;;;;5036769;28;20032;-74
2021/03/22 02:35:19;;;;;;;27.92;19.38;;;;;;;;;;5054482;28;20425;-73
2021/03/22 02:37:45;;;;;;;29.60;18.85;;;;;;;;;;5056760;28;20037;-74
2021/03/22 02:40:16;;;;;;;27.13;19.60;;;;;;;;;;5054545;28;20396;-74
2021/03/22 02:42:45;;;;;;;29.35;19.90;;;;;;;;;;5040097;28;20021;-74
2021/03/22 02:45:11;;;;;;;27.20;19.60;;;;;;;;;;5060379;28;20025;-74
2021/03/22 02:47:38;;;;;;;28.73;20.15;;;;;;;;;;5059934;28;20032;-77
2021/03/22 02:50:06;;;;;;;27.40;19.40;;;;;;;;;;5058620;28;20070;-77
2021/03/22 02:52:52;;;;;;;27.42;18.92;;;;;;;;;;5036967;28;20543;-77
2021/03/22 02:55:27;;;;;;;29.38;19.33;;;;;;;;;;5056051;28;20088;-77
2021/03/22 02:57:55;;;;;;;31.85;20.33;;;;;;;;;;5049674;28;20036;-77
2021/03/22 03:00:30;;;;;;;27.35;19.08;;;;;;;;;;5046066;28;20063;-74
2021/03/22 03:02:59;;;;;;;32.38;19.17;;;;;;;;;;5052952;28;20029;-74
2021/03/22 03:05:26;;;;;;;25.60;18.80;;;;;;;;;;5056050;28;20072;-74
2021/03/22 03:07:55;;;;;;;29.65;18.65;;;;;;;;;;5046736;28;20402;-73
2021/03/22 03:10:21;;;;;;;28.40;19.00;;;;;;;;;;5052425;28;20044;-78
2021/03/22 03:12:47;;;;;;;26.00;18.15;;;;;;;;;;5054062;28;20025;-74
2021/03/22 03:15:14;;;;;;;31.80;19.15;;;;;;;;;;5054113;28;20049;-77
2021/03/22 03:17:40;;;;;;;28.73;19.20;;;;;;;;;;5034144;28;20033;-78
2021/03/22 03:20:12;;;;;;;29.42;20.33;;;;;;;;;;5052202;28;20029;-74
2021/03/22 03:22:39;;;;;;;31.65;19.58;;;;;;;;;;5045545;28;20087;-74
2021/03/22 03:25:07;;;;;;;29.08;18.35;;;;;;;;;;5054774;28;20025;-75
2021/03/22 03:27:33;;;;;;;25.23;17.20;;;;;;;;;;5052405;28;20394;-75
2021/03/22 03:29:59;;;;;;;25.65;18.13;;;;;;;;;;5051099;28;20021;-77
2021/03/22 03:32:25;;;;;;;24.52;16.52;;;;;;;;;;5047498;28;20021;-74
2021/03/22 03:34:51;;;;;;;26.83;18.05;;;;;;;;;;5045589;28;20047;-74
2021/03/22 03:37:17;;;;;;;28.30;18.80;;;;;;;;;;5054445;28;20083;-76
2021/03/22 03:39:43;;;;;;;31.67;21.55;;;26.40;2201.60;;;;;;5045959;28;20031;-76
2021/03/22 03:42:10;;;;;;;30.52;19.75;;;26.10;2201.60;;;;;;5052594;28;20103;-74
2021/03/22 03:44:37;;;;;;;28.77;18.45;;;26.10;2201.60;;;;;;5050354;28;20025;-77
2021/03/22 03:47:04;;;;;;;25.65;18.33;;;26.10;2201.60;;;;;;5036439;28;20041;-73
2021/03/22 03:49:32;;;;;;;26.92;17.77;;;26.10;2201.60;;;;;;5058182;28;20021;-75
2021/03/22 03:51:58;;;;;;;27.15;17.90;;;26.10;2201.60;;;;;;5055684;28;20394;-74
2021/03/22 03:54:23;;;;;;;26.17;17.33;;;26.20;2201.60;;;;;;5053933;28;20033;-75
2021/03/22 03:56:49;;;;;;;23.55;16.17;;;26.30;2201.60;;;;;;5057367;28;20409;-74
2021/03/22 03:59:15;;;;;;;21.52;15.57;;;26.20;2201.60;;;;;;5059639;28;20021;-75
2021/03/22 04:01:40;;;;;;;23.77;17.70;;;26.20;2201.60;;;;;;5058562;28;20800;-75
2021/03/22 04:04:06;;;;;;;22.60;16.85;;;26.20;2201.60;;;;;;5056636;28;20386;-78
2021/03/22 04:06:34;;;;;;;23.48;16.70;;;26.30;2201.60;;;;;;5055481;28;20478;-74
2021/03/22 04:09:03;;;;;;;22.20;16.40;;;26.30;2201.60;;;;;;5054339;28;20069;-74
2021/03/22 04:11:31;;;;;;;22.70;15.35;;;26.20;2201.60;;;;;;5051235;28;20076;-74
2021/03/22 04:13:58;;;;;;;21.80;17.33;;;26.30;2201.60;;;;;;5057903;28;20029;-74
2021/03/22 04:16:26;;;;;;;23.20;16.95;;;26.30;2201.60;;;;;;5049045;28;20064;-73
2021/03/22 04:18:52;;;;;;;22.13;16.35;;;26.40;2201.60;;;;;;5052053;28;20422;-76
2021/03/22 04:21:22;;;;;;;23.55;17.20;;;26.40;2201.60;;;;;;5058188;28;20036;-75
2021/03/22 04:23:48;;;;;;;22.88;17.13;;;26.40;2201.60;;;;;;5058228;28;20049;-74
2021/03/22 04:26:15;;;;;;;26.02;18.40;;;26.50;2201.60;;;;;;5060879;28;20017;-80
2021/03/22 04:28:42;;;;;;;22.83;16.98;;;26.50;2201.60;;;;;;5039678;28;20028;-81
2021/03/22 04:31:11;;;;;;;22.98;16.77;;;51.20;2227.20;;;;;;5058713;28;20029;-74
2021/03/22 04:33:37;;;;;;;26.15;17.35;;;51.20;2227.20;;;;;;5059121;28;20029;-77
2021/03/22 04:36:04;;;;;;;21.88;16.77;;;51.20;2227.20;;;;;;5059826;28;20029;-73
2021/03/22 04:38:31;;;;;;;26.85;18.50;;;51.20;2227.20;;;;;;5055441;28;20040;-78
2021/03/22 04:40:56;;;;;;;32.97;21.17;;;51.30;2227.20;;;;;;5056999;28;20037;-73
2021/03/22 04:43:22;;;;;;;38.05;23.42;;;51.30;2227.20;;;;;;5057612;28;20028;-76
2021/03/22 04:45:48;;;;;;;31.75;19.15;;;51.30;2227.20;;;;;;5056789;28;20099;-73
2021/03/22 04:48:14;;;;;;;35.05;22.58;;;51.30;2227.20;;;;;;5060930;28;20032;-76
2021/03/22 04:50:40;;;;;;;40.67;24.70;;;51.30;2227.20;;;;;;5057213;28;20044;-74
2021/03/22 04:53:05;;;;;;;33.95;20.98;;;51.30;2227.20;;;;;;5041344;28;20017;-77
2021/03/22 04:55:32;;;;;;;36.63;22.90;;;51.40;2227.20;;;;;;5038155;28;20045;-76
2021/03/22 04:57:58;;;;;;;47.35;27.10;;;51.30;2227.20;;;;;;5057439;28;20104;-75
2021/03/22 05:00:39;;;;;;;38.88;22.27;;;51.30;2227.20;;;;;;5055019;28;20052;-73
2021/03/22 05:03:11;;;;;;;29.20;19.08;;;51.40;2227.20;;;;;;5052498;28;20021;-79
2021/03/22 05:05:38;;;;;;;25.00;17.88;;;51.40;2227.20;;;;;;5037811;28;20087;-74
2021/03/22 05:08:05;;;;;;;25.20;18.67;;;51.40;2227.20;;;;;;5052179;28;20053;-77
2021/03/22 05:10:35;;;;;;;26.10;18.25;;;51.50;2227.20;;;;;;5054162;28;20359;-75
2021/03/22 05:13:02;;;;;;;22.60;17.25;;;51.50;2227.20;;;;;;5049620;28;20043;-73
2021/03/22 05:15:28;;;;;;;24.15;17.80;;;51.50;2227.20;;;;;;5054956;28;20037;-72
2021/03/22 05:17:54;;;;;;;22.50;16.48;;;51.50;2227.20;;;;;;5050499;28;20028;-73
2021/03/22 05:20:41;;;;;;;25.40;17.02;;;51.50;2227.20;;;;;;5049989;28;20479;-76
2021/03/22 05:23:09;;;;;;;21.25;15.38;;;51.50;2227.20;;;;;;5050792;28;20048;-75
2021/03/22 05:25:35;;;;;;;21.00;16.67;;;51.60;2227.20;;;;;;5051268;28;20025;-76
2021/03/22 05:28:02;;;;;;;21.95;17.30;;;51.60;2227.20;;;;;;5054806;28;20024;-80
2021/03/22 05:30:28;;;;;;;21.77;17.20;;;51.60;2227.20;;;;;;5048339;28;20025;-74
2021/03/22 05:33:02;;;;;;;22.73;16.48;;;51.60;2227.20;;;;;;5051210;28;20028;-81
2021/03/22 05:35:28;;;;;;;21.02;15.68;;;51.50;2227.20;;;;;;5059154;28;20036;-73
2021/03/22 05:37:56;;;;;;;22.73;16.55;;;51.50;2227.20;;;;;;5054277;28;20037;-80
2021/03/22 05:40:32;;;;;;;22.77;16.70;;;51.60;2227.20;;;;;;5048050;28;20024;-76
2021/03/22 05:43:32;;;;;;;22.30;16.83;;;51.60;2227.20;;;;;;5061221;28;20029;-74
2021/03/22 05:46:18;;;;;;;23.98;17.42;;;51.60;2227.20;;;;;;5053622;28;20021;-73
2021/03/22 05:48:59;;;;;;;22.77;17.02;;;51.60;2227.20;;;;;;5048736;28;20080;-72
2021/03/22 05:51:30;;;;;;;23.08;17.63;;;51.60;2227.20;;;;;;5050744;28;20040;-74
2021/03/22 05:54:19;;;;;;;21.60;16.77;;;51.70;2227.20;;;;;;5058617;28;20040;-73
2021/03/22 05:56:47;;;;;;;32.22;21.58;;;51.70;2227.20;;;;;;4995170;28;20050;-74
2021/03/22 06:00:03;;;;;;;31.85;21.48;;;51.70;2227.20;;;;;;4997260;28;20089;-80
2021/03/22 06:02:38;;;;;;;34.47;22.10;;;51.60;2227.20;;;;;;4941380;29;20043;-77
2021/03/22 06:05:33;;;;;;;30.38;22.30;;;51.60;2227.20;;;;;;4928786;29;20043;-71
2021/03/22 06:08:12;;;;;;;29.25;20.30;;;51.70;2227.20;;;;;;4871176;29;20496;-75
2021/03/22 06:10:44;;;;;;;27.38;20.40;;;51.70;2227.20;;;;;;4872085;29;20049;-69
2021/03/22 06:13:10;;;;;;;28.08;20.60;;;51.60;2227.20;;;;;;4868309;29;20042;-76
2021/03/22 06:15:40;;;;;;;29.00;20.65;;;51.60;2227.20;;;;;;4872543;29;20526;-69
2021/03/22 06:18:49;;;;;;;26.02;20.58;;;51.50;2227.20;;;;;;4871144;29;20049;-70
2021/03/22 06:21:15;;;;;;;31.40;22.65;;;51.60;2227.20;;;;;;4870707;29;20041;-69
2021/03/22 06:23:46;;;;;;;33.70;23.10;;;51.50;2227.20;;;;;;4860847;29;20046;-75
2021/03/22 06:26:42;;;;;;;30.23;23.02;;;51.60;2227.20;;;;;;4864617;29;20041;-82
2021/03/22 06:29:27;;;;;;;30.95;21.05;;;51.70;2227.20;;;;;;4860317;29;20451;-68
2021/03/22 06:32:11;;;;;;;36.55;22.17;;;51.70;2227.20;;;;;;4859102;29;20069;-71
2021/03/22 06:34:52;;;;;;;34.25;22.70;;;51.70;2227.20;;;;;;4875567;29;20056;-75
2021/03/22 06:37:21;;;;;;;31.13;22.75;;;51.70;2227.20;;;;;;4876712;29;20510;-70
2021/03/22 06:39:51;;;;;;;32.67;22.42;;;51.70;2227.20;;;;;;4918187;29;20079;-68
2021/03/22 06:42:25;;;;;;;33.90;22.95;;;51.80;2227.20;;;;;;4936209;29;20040;-77
2021/03/22 06:44:52;;;;;;;33.00;23.90;;;51.80;2227.20;;;;;;4962455;28;20038;-72
2021/03/22 06:47:31;;;;;;;40.75;27.27;;;51.70;2227.20;;;;;;4995235;28;20145;-71
2021/03/22 06:50:22;;;;;;;33.42;23.25;;;51.80;2227.20;;;;;;4975752;28;20037;-72
2021/03/22 06:52:49;;;;;;;35.55;25.55;;;51.80;2227.20;;;;;;4992897;28;20056;-72
2021/03/22 06:55:38;;;;;;;49.17;27.90;;;51.90;2227.20;;;;;;5025491;28;20037;-73
2021/03/22 06:58:04;;;;;;;40.03;24.90;;;51.90;2227.20;;;;;;5053349;28;20032;-72
2021/03/22 07:00:33;;;;;;;36.50;24.73;;;51.90;2227.20;;;;;;5053100;28;20028;-71
2021/03/22 07:03:01;;;;;;;31.70;22.40;;;52.00;2227.20;;;;;;5050242;28;20021;-70
2021/03/22 07:05:27;;;;;;;30.50;22.38;;;52.10;2227.20;;;;;;5044856;28;20017;-73
2021/03/22 07:07:59;;;;;;;29.48;21.83;;;76.80;2227.20;;;;;;5039053;28;20168;-71
2021/03/22 07:10:30;;;;;;;28.93;20.33;;;76.80;2227.20;;;;;;5038571;28;20024;-74
2021/03/22 07:13:22;;;;;;;30.25;22.90;;;76.80;2227.20;;;;;;5047343;28;20021;-74
2021/03/22 07:15:51;;;;;;;33.83;24.85;;;76.80;2227.20;;;;;;5049766;28;20174;-73
2021/03/22 07:18:24;;;;;;;40.92;31.58;;;76.80;2227.20;;;;;;5049246;28;20044;-73
2021/03/22 07:21:09;;;;;;;30.15;23.80;;;76.80;2227.20;;;;;;5056089;28;20025;-74
2021/03/22 07:23:44;;;;;;;31.50;24.58;;;76.80;2227.20;;;;;;5047540;28;20033;-73
2021/03/22 07:26:21;;;;;;;28.75;21.90;;;77.00;2227.20;;;;;;5049254;28;20477;-72
2021/03/22 07:29:14;;;;;;;27.15;20.70;;;77.00;2227.20;;;;;;5055802;28;20464;-73
2021/03/22 07:32:01;;;;;;;27.45;22.10;;;77.00;2227.20;;;;;;5047681;28;20029;-71
2021/03/22 07:35:05;;;;;;;32.17;24.98;;;77.00;2227.20;;;;;;5044283;28;20071;-72
2021/03/22 07:37:44;;;;;;;30.15;22.10;;;77.00;2227.20;;;;;;5051030;28;20053;-69
2021/03/22 07:40:22;;;;;;;29.27;22.02;;;77.00;2227.20;;;;;;5039495;28;20033;-69
2021/03/22 07:43:07;;;;;;;30.20;24.35;;;77.00;2227.20;;;;;;5044075;28;20025;-71
2021/03/22 07:45:36;;;;;;;32.70;22.63;;;76.90;2227.20;;;;;;5048800;28;20132;-73
2021/03/22 07:48:47;;;;;;;29.73;23.00;;;77.00;2227.20;;;;;;5032150;28;20029;-74
2021/03/22 07:51:57;;;;;;;30.00;22.83;;;77.00;2227.20;;;;;;5045285;28;20571;-71
2021/03/22 07:54:48;;;;;;;34.22;24.02;;;77.00;2227.20;;;;;;4959046;28;20493;-71
2021/03/22 07:57:49;;;;;;;28.83;22.52;;;76.90;2227.20;;;;;;4949169;28;20528;-73
2021/03/22 08:00:22;;;;;;;38.40;25.48;;;76.90;2227.20;;;;;;4948055;28;20110;-73
2021/03/22 08:02:48;;;;;;;41.67;26.80;;;76.90;2227.20;;;;;;4951417;28;20111;-73
2021/03/22 08:05:35;;;;;;;45.67;29.33;;;76.80;2227.20;;;;;;4952340;28;20273;-73
2021/03/22 08:08:15;;;;;;;42.85;28.33;;;76.80;2227.20;;;;;;4946080;28;20067;-73
2021/03/22 08:10:58;;;;;;;44.78;30.50;;;76.80;2227.20;;;;;;4951823;28;20062;-75
2021/03/22 08:13:51;;;;;;;36.88;27.73;;;76.90;2227.20;;;;;;4952551;28;20039;-74
2021/03/22 08:16:16;;;;;;;39.40;27.45;;;76.80;2227.20;;;;;;4950675;28;20039;-73
2021/03/22 08:18:53;;;;;;;40.92;28.85;;;76.90;2227.20;;;;;;4951950;28;20173;-74
2021/03/22 08:21:28;;;;;;;42.72;30.25;;;77.00;2227.20;;;;;;4949812;28;20023;-72
2021/03/22 08:24:15;;;;;;;43.42;31.23;;;76.90;2227.20;;;;;;4955476;28;20066;-72
2021/03/22 08:26:46;;;;;;;41.45;29.67;;;76.80;2227.20;;;;;;5022525;28;20029;-71
2021/03/22 08:29:36;;;;;;;40.30;28.40;;;76.80;2227.20;;;;;;5023649;28;20052;-71
2021/03/22 08:32:14;;;;;;;40.20;29.70;;;76.90;2227.20;;;;;;5029594;28;20100;-71
2021/03/22 08:35:19;;;;;;;38.78;28.52;;;76.90;2227.20;;;;;;5024469;28;20442;-71
2021/03/22 08:38:20;;;;;;;44.90;30.60;;;76.90;2227.20;;;;;;5028314;28;20470;-72
2021/03/22 08:40:57;;;;;;;43.28;31.60;;;77.00;2227.20;;;;;;5004224;28;20447;-76
2021/03/22 08:43:44;;;;;;;40.08;30.88;;;76.90;2227.20;;;;;;5005596;28;20034;-72
2021/03/22 08:46:33;;;;;;;41.92;30.35;;;76.90;2227.20;;;;;;4994060;28;20038;-73
2021/03/22 08:49:02;;;;;;;43.75;31.92;;;77.00;2227.20;;;;;;5010648;28;20048;-72
2021/03/22 08:51:33;;;;;;;44.60;30.45;;;77.10;2227.20;;;;;;5012723;28;20042;-76
2021/03/22 08:54:00;;;;;;;42.50;29.95;;;77.20;2227.20;;;;;;4996690;28;20074;-70
2021/03/22 08:56:33;;;;;;;43.08;32.20;;;77.20;2227.20;;;;;;5006262;28;20051;-71
2021/03/22 08:59:06;;;;;;;55.50;37.13;;;77.30;2227.20;;;;;;4987545;28;20121;-69
2021/03/22 09:01:34;;;;;;;53.55;37.60;;;103.20;2227.20;;;;;;4987398;28;20026;-72
2021/03/22 09:04:31;;;;;;;42.78;32.08;;;77.30;2227.20;;;;;;5009072;28;20405;-72
2021/03/22 09:07:21;;;;;;;52.90;36.42;;;77.30;2227.20;;;;;;4921813;29;20048;-72
2021/03/22 09:09:49;;;;;;;58.33;39.30;;;77.40;2227.20;;;;;;4931849;29;20043;-70
2021/03/22 09:12:42;;;;;;;43.65;31.58;;;77.40;2227.20;;;;;;4931274;29;20039;-73
2021/03/22 09:15:34;;;;;;;44.03;32.40;;;77.40;2227.20;;;;;;4930687;29;20039;-73
2021/03/22 09:18:02;;;;;;;147.07;71.38;;;;;;;;;;4952934;28;20066;-72
2021/03/22 09:20:30;;;;;;;85.97;54.92;;;;;;;;;;4947977;28;20038;-72
2021/03/22 09:23:16;;;;;;;53.15;37.05;;;;;;;;;;4953138;28;20535;-72
2021/03/22 09:25:48;;;;;;;51.00;36.13;;;;;;;;;;4952372;28;20065;-72
2021/03/22 09:28:26;;;;;;;65.53;43.10;;;;;;;;;;4949813;28;20026;-72
2021/03/22 09:31:16;;;;;;;64.22;43.15;;;;;;;;;;4951493;28;20102;-69
2021/03/22 09:33:54;;;;;;;57.10;38.83;;;;;;;;;;4895175;29;20431;-69
2021/03/22 09:36:37;;;;;;;49.72;36.38;;;102.40;2227.20;;;;;;4895203;29;20053;-71
2021/03/22 09:39:26;;;;;;;50.03;34.78;;;77.70;2227.20;;;;;;4896316;29;20402;-71
2021/03/22 09:41:52;;;;;;;47.22;34.35;;;102.40;2227.20;;;;;;4892341;29;20041;-70
2021/03/22 09:44:20;;;;;;;49.10;34.30;;;102.40;2227.20;;;;;;4947100;28;20055;-70
2021/03/22 09:47:02;;;;;;;46.65;36.00;;;102.60;2227.20;;;;;;4930447;29;20617;-79
2021/03/22 09:49:28;;;;;;;49.47;35.30;;;102.50;2227.20;;;;;;4948168;28;20023;-71
2021/03/22 09:52:14;;;;;;;50.30;34.55;;;102.70;2227.20;;;;;;4953143;28;20106;-70
2021/03/22 09:54:43;;;;;;;47.33;34.90;;;102.80;2227.20;;;;;;4953272;29;20035;-72
2021/03/22 09:57:41;;;;;;;48.50;35.30;;;102.80;2227.20;;;;;;4952202;28;20039;-71
2021/03/22 10:00:47;;;;;;;51.05;37.35;;;102.90;2227.20;;;;;;4952929;28;20528;-71
2021/03/22 10:03:30;;;;;;;50.97;36.78;;;102.80;2227.20;;;;;;4952335;29;20092;-72
2021/03/22 10:06:03;;;;;;;64.18;42.25;;;102.90;2227.20;;;;;;4950651;28;20502;-70
2021/03/22 10:08:33;;;;;;;46.17;35.15;;;102.90;2227.20;;;;;;4946705;28;20051;-73
2021/03/22 10:11:21;;;;;;;48.08;33.78;;;102.90;2227.20;;;;;;5003003;28;20061;-73
2021/03/22 10:13:50;;;;;;;44.58;31.15;;;102.90;2227.20;;;;;;5032433;28;20049;-70
2021/03/22 10:16:28;;;;;;;37.45;28.15;;;102.90;2227.20;;;;;;5032087;28;20125;-71
2021/03/22 10:18:59;;;;;;;35.22;27.92;;;102.90;2227.20;;;;;;5029189;28;20033;-71
2021/03/22 10:21:32;;;;;;;36.13;27.85;;;102.80;2227.20;;;;;;5010636;28;20501;-73
2021/03/22 10:24:27;;;;;;;38.65;31.38;;;102.90;2227.20;;;;;;5031880;28;20021;-74
2021/03/22 10:26:55;;;;;;;50.30;37.38;;;103.00;2227.20;;;;;;4970284;28;20027;-73
2021/03/22 10:29:24;;;;;;;43.35;32.85;;;103.10;2227.20;;;;;;4970066;28;20043;-70
2021/03/22 10:32:00;;;;;;;40.95;31.40;;;103.20;2227.20;;;;;;4970978;28;20035;-73
2021/03/22 10:34:32;;;;;;;39.60;28.67;;;103.10;2227.20;;;;;;4971264;28;20062;-73
2021/03/22 10:37:10;;;;;;;39.60;30.13;;;103.10;2227.20;;;;;;4969866;28;20051;-70
2021/03/22 10:39:45;;;;;;;35.30;29.67;;;103.00;2227.20;;;;;;4969880;28;20042;-71
2021/03/22 10:42:25;;;;;;;41.33;30.80;;;103.00;2227.20;;;;;;4971188;28;20114;-72
2021/03/22 10:44:52;;;;;;;43.22;30.63;;;102.90;2227.20;;;;;;4971466;28;20038;-71
2021/03/22 10:47:19;;;;;;;41.92;31.33;;;102.80;2227.20;;;;;;4970765;28;20085;-71
2021/03/22 10:49:47;;;;;;;38.80;29.75;;;102.70;2227.20;;;;;;4970946;28;20018;-71
2021/03/22 10:52:42;;;;;;;42.42;30.63;;;102.60;2227.20;;;;;;4955708;28;20063;-71
2021/03/22 10:55:26;;;;;;;45.17;31.63;;;102.50;2227.20;;;;;;4894020;28;20498;-72
2021/03/22 10:57:52;;;;;;;40.40;30.65;;;102.50;2227.20;;;;;;4894919;29;20048;-72
2021/03/22 11:00:42;;;;;;;40.90;31.77;;;102.50;2227.20;;;;;;4895422;29;20479;-73
2021/03/22 11:03:09;;;;;;;47.78;33.60;;;102.50;2227.20;;;;;;4906647;28;20043;-70
2021/03/22 11:05:40;;;;;;;40.53;32.10;;;102.40;2227.20;;;;;;4933987;29;20090;-70
2021/03/22 11:08:19;;;;;;;45.40;34.55;;;102.50;2227.20;;;;;;4935486;29;20124;-72
2021/03/22 11:10:45;;;;;;;45.65;33.35;;;102.40;2227.20;;;;;;4949041;28;20059;-70
2021/03/22 11:13:15;;;;;;;43.60;33.22;;;102.40;2227.20;;;;;;4943327;28;20098;-73
2021/03/22 11:15:42;;;;;;;43.30;32.65;;;77.70;2227.20;;;;;;4931193;28;20237;-71
2021/03/22 11:18:15;;;;;;;49.45;36.88;;;77.60;2227.20;;;;;;4945476;28;20401;-74
2021/03/22 11:20:52;;;;;;;47.75;34.15;;;77.60;2227.20;;;;;;4947795;28;20039;-74
2021/03/22 11:23:30;;;;;;;39.80;31.85;;;77.70;2227.20;;;;;;4946986;29;20039;-75
2021/03/22 11:25:58;;;;;;;42.20;33.03;;;77.60;2227.20;;;;;;4952312;28;20066;-83
2021/03/22 11:28:28;;;;;;;42.50;34.13;;;77.60;2227.20;;;;;;4942366;28;20075;-76
2021/03/22 11:30:54;;;;;;;42.30;34.50;;;77.60;2227.20;;;;;;4969381;28;20044;-76
2021/03/22 11:33:41;;;;;;;43.95;33.80;;;77.60;2227.20;;;;;;5051939;28;20136;-76
2021/03/22 11:36:14;;;;;;;40.63;32.75;;;77.60;2227.20;;;;;;5051204;28;20032;-71
2021/03/22 11:38:56;;;;;;;43.40;34.45;;;77.60;2227.20;;;;;;5045956;28;20406;-71
2021/03/22 11:41:39;;;;;;;41.78;34.30;;;77.60;2227.20;;;;;;5052787;28;20029;-74
2021/03/22 11:44:19;;;;;;;42.00;34.10;;;77.60;2227.20;;;;;;5033052;28;20037;-73
2021/03/22 11:46:53;;;;;;;41.50;34.38;;;77.60;2227.20;;;;;;5044947;28;20024;-76
2021/03/22 11:49:37;;;;;;;39.35;31.58;;;77.60;2227.20;;;;;;5045817;28;20065;-75
2021/03/22 11:52:03;;;;;;;;;;;77.50;2227.20;;;;;;5053738;28;20021;-74
2021/03/22 11:54:31;;;;;;;35.60;30.55;;;77.40;2227.20;;;;;;5038746;28;19967;-74
2021/03/22 11:57:02;;;;;;;37.95;31.10;;;77.40;2227.20;;;;;;5046867;28;20017;-79
2021/03/22 11:59:28;;;;;;;39.30;31.17;;;77.30;2227.20;;;;;;5044842;28;20039;-78
2021/03/22 12:02:19;;;;;;;39.15;32.20;;;77.40;2227.20;;;;;;5029790;28;20486;-71
2021/03/22 12:05:06;;;;;;;36.55;30.63;;;77.50;2227.20;;;;;;5052806;28;20032;-74
2021/03/22 12:07:36;;;;;;;38.20;31.63;;;77.60;2227.20;;;;;;5041701;28;20137;-81
2021/03/22 12:10:15;;;;;;;39.30;30.35;;;77.60;2227.20;;;;;;5056119;28;20135;-76
2021/03/22 12:12:42;;;;;;;43.63;31.38;;;77.70;2227.20;;;;;;5052212;28;20057;-73
2021/03/22 12:15:27;;;;;;;36.75;30.20;;;77.60;2227.20;;;;;;5045802;28;20024;-83
2021/03/22 12:18:04;;;;;;;34.40;28.02;;;102.50;2227.20;;;;;;5053862;28;20097;-71
2021/03/22 12:20:33;;;;;;;34.15;28.13;;;77.50;2227.20;;;;;;5053400;28;20521;-72
2021/03/22 12:22:59;;;;;;;36.60;28.88;;;77.30;2227.20;;;;;;5053177;28;20446;-72
2021/03/22 12:25:28;;;;;;;37.20;28.48;;;77.30;2227.20;;;;;;5054921;28;20075;-71
2021/03/22 12:27:55;;;;;;;38.60;30.17;;;77.30;2227.20;;;;;;5052860;28;20478;-72
2021/03/22 12:30:23;;;;;;;36.67;29.50;;;77.20;2227.20;;;;;;5055008;28;20646;-74
2021/03/22 12:32:50;;;;;;;37.08;29.95;;;77.20;2227.20;;;;;;5055640;28;20082;-73
2021/03/22 12:35:28;;;;;;;38.38;31.23;;;77.30;2227.20;;;;;;5052639;28;20037;-74
2021/03/22 12:37:54;;;;;;;39.35;32.22;;;77.30;2227.20;;;;;;5047480;28;20040;-75
2021/03/22 12:40:20;;;;;;;40.55;31.17;;;77.50;2227.20;;;;;;5051487;28;20033;-72
2021/03/22 12:42:47;;;;;;;43.20;32.80;;;77.60;2227.20;;;;;;5053145;28;20017;-71
2021/03/22 12:45:18;;;;;;;41.40;32.80;;;77.70;2227.20;;;;;;5048464;28;20498;-81
2021/03/22 12:47:43;;;;;;;38.78;31.67;;;102.40;2227.20;;;;;;5057147;28;20090;-78
2021/03/22 12:50:19;;;;;;;41.03;33.05;;;102.40;2227.20;;;;;;5054012;28;20100;-72
2021/03/22 12:52:48;;;;;;;38.60;31.27;;;102.50;2227.20;;;;;;5052009;28;20099;-75
2021/03/22 12:55:15;;;;;;;40.47;32.90;;;102.60;2227.20;;;;;;5042940;28;20147;-74